sensor_id;sensor_type;location;lat;lon;timestamp;P1;durP1;ratioP1;P2;durP2;ratioP2
79124;SDS011;68527;39.470;-0.376;2023-07-09T00:01:38;3.20;;;2.20;;
79124;SDS011;68527;39.470;-0.376;2023-07-09T00:04:04;3.80;;;2.60;;
79124;SDS011;68527;39.470;-0.376;2023-07-09T00:06:29;3.80;;;2.50;;
79124;SDS011;68527;39.470;-0.376;2023-07-09T00:08:55;4.70;;;2.80;;
79124;SDS011;68527;39.470;-0.376;2023-07-09T00:11:21;4.00;;;2.90;;
79124;SDS011;68527;39.470;-0.376;2023-07-09T00:13:46;3.60;;;3.00;;
79124;SDS011;68527;39.470;-0.376;2023-07-09T00:16:16;4.10;;;2.70;;
79124;SDS011;68527;39.470;-0.376;2023-07-09T00:18:45;3.70;;;2.60;;
79124;SDS011;68527;39.470;-0.376;2023-07-09T00:21:13;3.60;;;2.80;;
79124;SDS011;68527;39.470;-0.376;2023-07-09T00:23:40;3.40;;;2.60;;
79124;SDS011;68527;39.470;-0.376;2023-07-09T00:26:10;3.50;;;3.10;;
79124;SDS011;68527;39.470;-0.376;2023-07-09T00:28:39;2.90;;;2.20;;
79124;SDS011;68527;39.470;-0.376;2023-07-09T00:31:05;4.80;;;2.60;;
79124;SDS011;68527;39.470;-0.376;2023-07-09T00:33:31;3.10;;;2.40;;
79124;SDS011;68527;39.470;-0.376;2023-07-09T00:35:57;3.30;;;2.50;;
79124;SDS011;68527;39.470;-0.376;2023-07-09T00:38:23;3.10;;;2.40;;
79124;SDS011;68527;39.470;-0.376;2023-07-09T00:41:03;4.40;;;2.50;;
79124;SDS011;68527;39.470;-0.376;2023-07-09T00:43:31;3.20;;;2.40;;
79124;SDS011;68527;39.470;-0.376;2023-07-09T00:46:14;3.50;;;2.80;;
79124;SDS011;68527;39.470;-0.376;2023-07-09T00:48:45;3.80;;;2.60;;
79124;SDS011;68527;39.470;-0.376;2023-07-09T00:51:16;3.20;;;2.50;;
79124;SDS011;68527;39.470;-0.376;2023-07-09T00:53:45;3.90;;;2.30;;
79124;SDS011;68527;39.470;-0.376;2023-07-09T00:56:13;4.20;;;3.00;;
79124;SDS011;68527;39.470;-0.376;2023-07-09T00:58:42;2.60;;;2.20;;
79124;SDS011;68527;39.470;-0.376;2023-07-09T01:01:11;4.20;;;2.40;;
79124;SDS011;68527;39.470;-0.376;2023-07-09T01:03:42;3.90;;;2.60;;
79124;SDS011;68527;39.470;-0.376;2023-07-09T01:06:27;2.50;;;1.80;;
79124;SDS011;68527;39.470;-0.376;2023-07-09T01:08:58;3.70;;;2.50;;
79124;SDS011;68527;39.470;-0.376;2023-07-09T01:11:26;3.90;;;2.40;;
79124;SDS011;68527;39.470;-0.376;2023-07-09T01:13:52;3.10;;;2.30;;
79124;SDS011;68527;39.470;-0.376;2023-07-09T01:16:20;3.40;;;2.50;;
79124;SDS011;68527;39.470;-0.376;2023-07-09T01:18:51;3.10;;;2.50;;
79124;SDS011;68527;39.470;-0.376;2023-07-09T01:21:17;3.40;;;2.50;;
79124;SDS011;68527;39.470;-0.376;2023-07-09T01:23:44;2.70;;;2.30;;
79124;SDS011;68527;39.470;-0.376;2023-07-09T01:26:11;4.00;;;2.40;;
79124;SDS011;68527;39.470;-0.376;2023-07-09T01:28:38;4.90;;;2.30;;
79124;SDS011;68527;39.470;-0.376;2023-07-09T01:31:12;3.00;;;2.40;;
79124;SDS011;68527;39.470;-0.376;2023-07-09T01:33:39;2.90;;;2.10;;
79124;SDS011;68527;39.470;-0.376;2023-07-09T01:36:05;3.50;;;2.00;;
79124;SDS011;68527;39.470;-0.376;2023-07-09T01:38:32;3.20;;;2.10;;
79124;SDS011;68527;39.470;-0.376;2023-07-09T01:40:58;3.30;;;2.10;;
79124;SDS011;68527;39.470;-0.376;2023-07-09T01:43:24;3.40;;;2.30;;
79124;SDS011;68527;39.470;-0.376;2023-07-09T01:45:52;3.20;;;2.10;;
79124;SDS011;68527;39.470;-0.376;2023-07-09T01:48:22;3.90;;;2.30;;
79124;SDS011;68527;39.470;-0.376;2023-07-09T01:50:49;2.90;;;1.90;;
79124;SDS011;68527;39.470;-0.376;2023-07-09T01:53:16;3.60;;;2.00;;
79124;SDS011;68527;39.470;-0.376;2023-07-09T01:55:43;3.60;;;2.50;;
79124;SDS011;68527;39.470;-0.376;2023-07-09T01:58:09;3.90;;;2.30;;
79124;SDS011;68527;39.470;-0.376;2023-07-09T02:00:36;3.70;;;2.20;;
79124;SDS011;68527;39.470;-0.376;2023-07-09T02:03:02;3.30;;;2.30;;
79124;SDS011;68527;39.470;-0.376;2023-07-09T02:05:29;3.50;;;2.30;;
79124;SDS011;68527;39.470;-0.376;2023-07-09T02:07:56;4.40;;;2.70;;
79124;SDS011;68527;39.470;-0.376;2023-07-09T02:10:22;5.30;;;2.60;;
79124;SDS011;68527;39.470;-0.376;2023-07-09T02:12:47;3.20;;;2.30;;
79124;SDS011;68527;39.470;-0.376;2023-07-09T02:15:13;3.70;;;2.40;;
79124;SDS011;68527;39.470;-0.376;2023-07-09T02:17:39;3.90;;;2.50;;
79124;SDS011;68527;39.470;-0.376;2023-07-09T02:20:05;3.50;;;2.30;;
79124;SDS011;68527;39.470;-0.376;2023-07-09T02:22:33;3.80;;;2.70;;
79124;SDS011;68527;39.470;-0.376;2023-07-09T02:24:59;3.10;;;2.20;;
79124;SDS011;68527;39.470;-0.376;2023-07-09T02:27:25;2.60;;;2.00;;
79124;SDS011;68527;39.470;-0.376;2023-07-09T02:29:50;3.40;;;2.30;;
79124;SDS011;68527;39.470;-0.376;2023-07-09T02:32:17;2.80;;;2.40;;
79124;SDS011;68527;39.470;-0.376;2023-07-09T02:34:44;4.20;;;2.30;;
79124;SDS011;68527;39.470;-0.376;2023-07-09T02:37:14;3.00;;;2.40;;
79124;SDS011;68527;39.470;-0.376;2023-07-09T02:39:42;4.00;;;2.40;;
79124;SDS011;68527;39.470;-0.376;2023-07-09T02:42:09;3.50;;;2.30;;
79124;SDS011;68527;39.470;-0.376;2023-07-09T02:44:36;5.50;;;2.10;;
79124;SDS011;68527;39.470;-0.376;2023-07-09T02:47:02;3.80;;;2.00;;
79124;SDS011;68527;39.470;-0.376;2023-07-09T02:49:28;4.10;;;2.20;;
79124;SDS011;68527;39.470;-0.376;2023-07-09T02:51:54;2.50;;;2.10;;
79124;SDS011;68527;39.470;-0.376;2023-07-09T02:54:20;3.00;;;2.20;;
79124;SDS011;68527;39.470;-0.376;2023-07-09T02:56:45;2.90;;;2.00;;
79124;SDS011;68527;39.470;-0.376;2023-07-09T02:59:11;3.00;;;2.30;;
79124;SDS011;68527;39.470;-0.376;2023-07-09T03:01:37;3.10;;;2.10;;
79124;SDS011;68527;39.470;-0.376;2023-07-09T03:04:03;2.90;;;2.30;;
79124;SDS011;68527;39.470;-0.376;2023-07-09T03:06:29;4.00;;;2.30;;
79124;SDS011;68527;39.470;-0.376;2023-07-09T03:08:58;3.50;;;2.20;;
79124;SDS011;68527;39.470;-0.376;2023-07-09T03:11:25;3.40;;;2.40;;
79124;SDS011;68527;39.470;-0.376;2023-07-09T03:13:51;3.40;;;2.40;;
79124;SDS011;68527;39.470;-0.376;2023-07-09T03:16:16;2.80;;;2.00;;
79124;SDS011;68527;39.470;-0.376;2023-07-09T03:18:44;3.10;;;2.10;;
79124;SDS011;68527;39.470;-0.376;2023-07-09T03:21:09;4.70;;;2.20;;
79124;SDS011;68527;39.470;-0.376;2023-07-09T03:23:35;2.80;;;2.00;;
79124;SDS011;68527;39.470;-0.376;2023-07-09T03:26:00;3.50;;;2.10;;
79124;SDS011;68527;39.470;-0.376;2023-07-09T03:28:26;3.20;;;2.30;;
79124;SDS011;68527;39.470;-0.376;2023-07-09T03:30:54;3.60;;;2.40;;
79124;SDS011;68527;39.470;-0.376;2023-07-09T03:33:21;2.90;;;2.30;;
79124;SDS011;68527;39.470;-0.376;2023-07-09T03:35:47;3.00;;;1.80;;
79124;SDS011;68527;39.470;-0.376;2023-07-09T03:38:13;2.70;;;2.30;;
79124;SDS011;68527;39.470;-0.376;2023-07-09T03:40:38;3.40;;;2.20;;
79124;SDS011;68527;39.470;-0.376;2023-07-09T03:43:04;3.40;;;2.30;;
79124;SDS011;68527;39.470;-0.376;2023-07-09T03:45:30;3.50;;;2.40;;
79124;SDS011;68527;39.470;-0.376;2023-07-09T03:47:56;3.00;;;2.30;;
79124;SDS011;68527;39.470;-0.376;2023-07-09T03:50:22;3.30;;;2.40;;
79124;SDS011;68527;39.470;-0.376;2023-07-09T03:52:48;3.40;;;2.40;;
79124;SDS011;68527;39.470;-0.376;2023-07-09T03:55:13;2.90;;;2.20;;
79124;SDS011;68527;39.470;-0.376;2023-07-09T03:57:39;3.40;;;2.30;;
79124;SDS011;68527;39.470;-0.376;2023-07-09T04:00:05;2.80;;;2.10;;
79124;SDS011;68527;39.470;-0.376;2023-07-09T04:02:35;3.90;;;2.50;;
79124;SDS011;68527;39.470;-0.376;2023-07-09T04:05:01;2.60;;;2.10;;
79124;SDS011;68527;39.470;-0.376;2023-07-09T04:07:27;2.60;;;2.10;;
79124;SDS011;68527;39.470;-0.376;2023-07-09T04:09:52;3.60;;;2.40;;
79124;SDS011;68527;39.470;-0.376;2023-07-09T04:12:18;2.90;;;2.10;;
79124;SDS011;68527;39.470;-0.376;2023-07-09T04:14:43;3.40;;;2.20;;
79124;SDS011;68527;39.470;-0.376;2023-07-09T04:17:09;5.20;;;2.50;;
79124;SDS011;68527;39.470;-0.376;2023-07-09T04:19:34;2.70;;;2.10;;
79124;SDS011;68527;39.470;-0.376;2023-07-09T04:22:00;3.50;;;2.30;;
79124;SDS011;68527;39.470;-0.376;2023-07-09T04:24:25;2.60;;;2.20;;
79124;SDS011;68527;39.470;-0.376;2023-07-09T04:26:52;4.20;;;2.50;;
79124;SDS011;68527;39.470;-0.376;2023-07-09T04:29:21;3.30;;;2.10;;
79124;SDS011;68527;39.470;-0.376;2023-07-09T04:31:48;4.50;;;2.50;;
79124;SDS011;68527;39.470;-0.376;2023-07-09T04:34:13;3.30;;;2.50;;
79124;SDS011;68527;39.470;-0.376;2023-07-09T04:36:39;4.30;;;2.60;;
79124;SDS011;68527;39.470;-0.376;2023-07-09T04:39:04;3.70;;;2.40;;
79124;SDS011;68527;39.470;-0.376;2023-07-09T04:41:30;2.80;;;2.40;;
79124;SDS011;68527;39.470;-0.376;2023-07-09T04:43:56;3.00;;;2.40;;
79124;SDS011;68527;39.470;-0.376;2023-07-09T04:46:21;4.80;;;2.20;;
79124;SDS011;68527;39.470;-0.376;2023-07-09T04:48:47;2.80;;;2.00;;
79124;SDS011;68527;39.470;-0.376;2023-07-09T04:51:12;2.90;;;2.20;;
79124;SDS011;68527;39.470;-0.376;2023-07-09T04:53:38;3.40;;;2.30;;
79124;SDS011;68527;39.470;-0.376;2023-07-09T04:56:03;2.90;;;2.20;;
79124;SDS011;68527;39.470;-0.376;2023-07-09T04:58:29;4.70;;;2.50;;
79124;SDS011;68527;39.470;-0.376;2023-07-09T05:00:59;3.40;;;2.30;;
79124;SDS011;68527;39.470;-0.376;2023-07-09T05:03:25;2.90;;;2.20;;
79124;SDS011;68527;39.470;-0.376;2023-07-09T05:05:51;3.20;;;2.40;;
79124;SDS011;68527;39.470;-0.376;2023-07-09T05:08:17;3.40;;;2.50;;
79124;SDS011;68527;39.470;-0.376;2023-07-09T05:10:43;3.10;;;2.30;;
79124;SDS011;68527;39.470;-0.376;2023-07-09T05:13:10;2.70;;;2.00;;
79124;SDS011;68527;39.470;-0.376;2023-07-09T05:15:35;2.40;;;2.10;;
79124;SDS011;68527;39.470;-0.376;2023-07-09T05:18:04;3.00;;;2.10;;
79124;SDS011;68527;39.470;-0.376;2023-07-09T05:20:30;2.80;;;2.20;;
79124;SDS011;68527;39.470;-0.376;2023-07-09T05:22:56;3.70;;;2.30;;
79124;SDS011;68527;39.470;-0.376;2023-07-09T05:25:21;3.50;;;2.40;;
79124;SDS011;68527;39.470;-0.376;2023-07-09T05:27:47;3.30;;;2.30;;
79124;SDS011;68527;39.470;-0.376;2023-07-09T05:30:12;3.70;;;2.30;;
79124;SDS011;68527;39.470;-0.376;2023-07-09T05:32:38;3.70;;;2.40;;
79124;SDS011;68527;39.470;-0.376;2023-07-09T05:35:04;2.50;;;2.10;;
79124;SDS011;68527;39.470;-0.376;2023-07-09T05:37:30;3.80;;;2.00;;
79124;SDS011;68527;39.470;-0.376;2023-07-09T05:39:55;2.50;;;2.00;;
79124;SDS011;68527;39.470;-0.376;2023-07-09T05:42:21;2.90;;;2.00;;
79124;SDS011;68527;39.470;-0.376;2023-07-09T05:44:47;4.20;;;2.50;;
79124;SDS011;68527;39.470;-0.376;2023-07-09T05:47:12;2.80;;;2.20;;
79124;SDS011;68527;39.470;-0.376;2023-07-09T05:49:38;3.80;;;2.20;;
79124;SDS011;68527;39.470;-0.376;2023-07-09T05:52:04;4.30;;;2.40;;
79124;SDS011;68527;39.470;-0.376;2023-07-09T05:54:30;2.30;;;2.00;;
79124;SDS011;68527;39.470;-0.376;2023-07-09T05:56:56;2.80;;;2.10;;
79124;SDS011;68527;39.470;-0.376;2023-07-09T05:59:22;2.80;;;1.90;;
79124;SDS011;68527;39.470;-0.376;2023-07-09T06:01:47;9.80;;;2.80;;
79124;SDS011;68527;39.470;-0.376;2023-07-09T06:04:13;3.40;;;2.60;;
79124;SDS011;68527;39.470;-0.376;2023-07-09T06:06:39;4.60;;;2.70;;
79124;SDS011;68527;39.470;-0.376;2023-07-09T06:09:07;4.10;;;2.50;;
79124;SDS011;68527;39.470;-0.376;2023-07-09T06:11:33;2.90;;;2.40;;
79124;SDS011;68527;39.470;-0.376;2023-07-09T06:13:59;4.10;;;2.50;;
79124;SDS011;68527;39.470;-0.376;2023-07-09T06:16:25;3.20;;;2.40;;
79124;SDS011;68527;39.470;-0.376;2023-07-09T06:18:51;2.70;;;2.30;;
79124;SDS011;68527;39.470;-0.376;2023-07-09T06:21:16;3.80;;;2.30;;
79124;SDS011;68527;39.470;-0.376;2023-07-09T06:23:41;4.10;;;2.40;;
79124;SDS011;68527;39.470;-0.376;2023-07-09T06:26:07;3.40;;;2.20;;
79124;SDS011;68527;39.470;-0.376;2023-07-09T06:28:33;2.70;;;2.40;;
79124;SDS011;68527;39.470;-0.376;2023-07-09T06:30:58;4.40;;;2.90;;
79124;SDS011;68527;39.470;-0.376;2023-07-09T06:33:24;3.30;;;2.30;;
79124;SDS011;68527;39.470;-0.376;2023-07-09T06:35:54;2.90;;;2.40;;
79124;SDS011;68527;39.470;-0.376;2023-07-09T06:38:22;3.40;;;2.70;;
79124;SDS011;68527;39.470;-0.376;2023-07-09T06:40:48;3.50;;;2.70;;
79124;SDS011;68527;39.470;-0.376;2023-07-09T06:43:14;3.60;;;2.60;;
79124;SDS011;68527;39.470;-0.376;2023-07-09T06:45:47;4.50;;;2.50;;
79124;SDS011;68527;39.470;-0.376;2023-07-09T06:48:26;3.40;;;2.60;;
79124;SDS011;68527;39.470;-0.376;2023-07-09T06:50:53;3.40;;;2.70;;
79124;SDS011;68527;39.470;-0.376;2023-07-09T06:53:20;3.30;;;2.80;;
79124;SDS011;68527;39.470;-0.376;2023-07-09T06:55:47;3.30;;;3.00;;
79124;SDS011;68527;39.470;-0.376;2023-07-09T06:58:15;3.80;;;2.60;;
79124;SDS011;68527;39.470;-0.376;2023-07-09T07:00:41;3.80;;;2.80;;
79124;SDS011;68527;39.470;-0.376;2023-07-09T07:03:06;4.40;;;2.90;;
79124;SDS011;68527;39.470;-0.376;2023-07-09T07:05:33;3.90;;;2.70;;
79124;SDS011;68527;39.470;-0.376;2023-07-09T07:07:59;3.80;;;3.20;;
79124;SDS011;68527;39.470;-0.376;2023-07-09T07:10:26;4.10;;;2.80;;
79124;SDS011;68527;39.470;-0.376;2023-07-09T07:12:52;4.10;;;2.90;;
79124;SDS011;68527;39.470;-0.376;2023-07-09T07:15:17;3.40;;;2.70;;
79124;SDS011;68527;39.470;-0.376;2023-07-09T07:17:44;4.60;;;3.00;;
79124;SDS011;68527;39.470;-0.376;2023-07-09T07:20:11;4.00;;;2.90;;
79124;SDS011;68527;39.470;-0.376;2023-07-09T07:22:38;4.30;;;3.00;;
79124;SDS011;68527;39.470;-0.376;2023-07-09T07:25:04;4.70;;;3.00;;
79124;SDS011;68527;39.470;-0.376;2023-07-09T07:27:30;3.20;;;2.60;;
79124;SDS011;68527;39.470;-0.376;2023-07-09T07:29:56;4.30;;;2.90;;
79124;SDS011;68527;39.470;-0.376;2023-07-09T07:32:22;3.50;;;2.70;;
79124;SDS011;68527;39.470;-0.376;2023-07-09T07:34:48;3.60;;;2.60;;
79124;SDS011;68527;39.470;-0.376;2023-07-09T07:37:14;3.90;;;2.30;;
79124;SDS011;68527;39.470;-0.376;2023-07-09T07:39:44;3.50;;;2.80;;
79124;SDS011;68527;39.470;-0.376;2023-07-09T07:42:10;3.80;;;2.30;;
79124;SDS011;68527;39.470;-0.376;2023-07-09T07:44:35;2.90;;;1.80;;
79124;SDS011;68527;39.470;-0.376;2023-07-09T07:47:01;4.00;;;2.70;;
79124;SDS011;68527;39.470;-0.376;2023-07-09T07:49:26;5.20;;;2.20;;
79124;SDS011;68527;39.470;-0.376;2023-07-09T07:51:52;4.50;;;2.50;;
79124;SDS011;68527;39.470;-0.376;2023-07-09T07:54:18;3.90;;;2.40;;
79124;SDS011;68527;39.470;-0.376;2023-07-09T07:56:43;3.40;;;2.50;;
79124;SDS011;68527;39.470;-0.376;2023-07-09T07:59:09;3.70;;;2.60;;
79124;SDS011;68527;39.470;-0.376;2023-07-09T08:01:34;4.20;;;2.30;;
79124;SDS011;68527;39.470;-0.376;2023-07-09T08:04:01;5.00;;;2.30;;
79124;SDS011;68527;39.470;-0.376;2023-07-09T08:06:27;2.60;;;2.10;;
79124;SDS011;68527;39.470;-0.376;2023-07-09T08:08:53;3.60;;;2.40;;
79124;SDS011;68527;39.470;-0.376;2023-07-09T08:11:18;3.50;;;2.20;;
79124;SDS011;68527;39.470;-0.376;2023-07-09T08:13:44;3.20;;;2.60;;
79124;SDS011;68527;39.470;-0.376;2023-07-09T08:16:10;4.80;;;2.60;;
79124;SDS011;68527;39.470;-0.376;2023-07-09T08:18:37;3.60;;;2.50;;
79124;SDS011;68527;39.470;-0.376;2023-07-09T08:21:03;3.40;;;2.40;;
79124;SDS011;68527;39.470;-0.376;2023-07-09T08:23:29;3.20;;;2.20;;
79124;SDS011;68527;39.470;-0.376;2023-07-09T08:25:55;3.90;;;2.60;;
79124;SDS011;68527;39.470;-0.376;2023-07-09T08:28:22;4.10;;;2.30;;
79124;SDS011;68527;39.470;-0.376;2023-07-09T08:30:48;3.40;;;2.00;;
79124;SDS011;68527;39.470;-0.376;2023-07-09T08:33:13;3.70;;;2.20;;
79124;SDS011;68527;39.470;-0.376;2023-07-09T08:35:41;2.80;;;2.10;;
79124;SDS011;68527;39.470;-0.376;2023-07-09T08:38:08;3.80;;;2.50;;
79124;SDS011;68527;39.470;-0.376;2023-07-09T08:40:37;3.40;;;2.50;;
79124;SDS011;68527;39.470;-0.376;2023-07-09T08:43:15;4.10;;;2.20;;
79124;SDS011;68527;39.470;-0.376;2023-07-09T08:46:03;4.20;;;2.60;;
79124;SDS011;68527;39.470;-0.376;2023-07-09T08:48:36;3.30;;;2.50;;
79124;SDS011;68527;39.470;-0.376;2023-07-09T08:51:06;4.80;;;2.50;;
79124;SDS011;68527;39.470;-0.376;2023-07-09T08:53:46;4.40;;;2.60;;
79124;SDS011;68527;39.470;-0.376;2023-07-09T08:56:15;5.20;;;2.60;;
79124;SDS011;68527;39.470;-0.376;2023-07-09T08:58:41;7.30;;;2.50;;
79124;SDS011;68527;39.470;-0.376;2023-07-09T09:01:17;3.40;;;2.30;;
79124;SDS011;68527;39.470;-0.376;2023-07-09T09:03:46;2.90;;;2.30;;
79124;SDS011;68527;39.470;-0.376;2023-07-09T09:06:24;4.00;;;2.50;;
79124;SDS011;68527;39.470;-0.376;2023-07-09T09:14:19;4.70;;;2.50;;
79124;SDS011;68527;39.470;-0.376;2023-07-09T09:16:52;2.50;;;2.10;;
79124;SDS011;68527;39.470;-0.376;2023-07-09T09:19:23;3.90;;;2.10;;
79124;SDS011;68527;39.470;-0.376;2023-07-09T09:21:54;3.10;;;2.30;;
79124;SDS011;68527;39.470;-0.376;2023-07-09T09:24:27;4.30;;;2.50;;
79124;SDS011;68527;39.470;-0.376;2023-07-09T09:27:08;3.40;;;2.20;;
79124;SDS011;68527;39.470;-0.376;2023-07-09T09:29:34;4.00;;;2.70;;
79124;SDS011;68527;39.470;-0.376;2023-07-09T09:32:02;4.20;;;2.60;;
79124;SDS011;68527;39.470;-0.376;2023-07-09T09:34:55;3.70;;;2.60;;
79124;SDS011;68527;39.470;-0.376;2023-07-09T09:37:25;2.80;;;2.40;;
79124;SDS011;68527;39.470;-0.376;2023-07-09T09:39:52;3.80;;;2.30;;
79124;SDS011;68527;39.470;-0.376;2023-07-09T09:42:18;3.50;;;2.30;;
79124;SDS011;68527;39.470;-0.376;2023-07-09T09:44:44;3.60;;;2.30;;
79124;SDS011;68527;39.470;-0.376;2023-07-09T09:47:10;5.00;;;2.30;;
79124;SDS011;68527;39.470;-0.376;2023-07-09T09:49:43;3.30;;;2.00;;
79124;SDS011;68527;39.470;-0.376;2023-07-09T09:52:13;3.40;;;2.30;;
79124;SDS011;68527;39.470;-0.376;2023-07-09T09:54:41;3.50;;;2.20;;
79124;SDS011;68527;39.470;-0.376;2023-07-09T09:57:16;3.70;;;2.50;;
79124;SDS011;68527;39.470;-0.376;2023-07-09T09:59:47;3.80;;;2.40;;
79124;SDS011;68527;39.470;-0.376;2023-07-09T10:02:22;3.20;;;2.10;;
79124;SDS011;68527;39.470;-0.376;2023-07-09T10:04:50;2.80;;;2.20;;
79124;SDS011;68527;39.470;-0.376;2023-07-09T10:07:33;3.80;;;2.50;;
79124;SDS011;68527;39.470;-0.376;2023-07-09T10:10:02;3.70;;;2.50;;
79124;SDS011;68527;39.470;-0.376;2023-07-09T10:13:19;4.60;;;2.40;;
79124;SDS011;68527;39.470;-0.376;2023-07-09T10:18:43;3.60;;;2.90;;
79124;SDS011;68527;39.470;-0.376;2023-07-09T10:23:35;3.10;;;2.30;;
79124;SDS011;68527;39.470;-0.376;2023-07-09T10:35:02;4.30;;;2.60;;
79124;SDS011;68527;39.470;-0.376;2023-07-09T10:37:42;4.80;;;2.80;;
79124;SDS011;68527;39.470;-0.376;2023-07-09T10:40:17;4.10;;;2.50;;
79124;SDS011;68527;39.470;-0.376;2023-07-09T10:42:52;4.20;;;2.80;;
79124;SDS011;68527;39.470;-0.376;2023-07-09T10:45:30;4.50;;;3.00;;
79124;SDS011;68527;39.470;-0.376;2023-07-09T10:48:10;4.40;;;2.30;;
79124;SDS011;68527;39.470;-0.376;2023-07-09T10:50:43;4.10;;;3.10;;
79124;SDS011;68527;39.470;-0.376;2023-07-09T10:53:16;5.40;;;2.90;;
79124;SDS011;68527;39.470;-0.376;2023-07-09T10:56:11;4.60;;;3.00;;
79124;SDS011;68527;39.470;-0.376;2023-07-09T10:58:50;4.20;;;2.80;;
79124;SDS011;68527;39.470;-0.376;2023-07-09T11:01:36;5.20;;;2.90;;
79124;SDS011;68527;39.470;-0.376;2023-07-09T11:04:06;2.90;;;2.60;;
79124;SDS011;68527;39.470;-0.376;2023-07-09T11:06:41;3.80;;;2.90;;
79124;SDS011;68527;39.470;-0.376;2023-07-09T11:09:20;3.10;;;2.40;;
79124;SDS011;68527;39.470;-0.376;2023-07-09T11:11:47;4.70;;;3.00;;
79124;SDS011;68527;39.470;-0.376;2023-07-09T11:14:34;4.70;;;3.20;;
79124;SDS011;68527;39.470;-0.376;2023-07-09T11:17:03;4.30;;;3.20;;
79124;SDS011;68527;39.470;-0.376;2023-07-09T11:19:29;3.50;;;2.60;;
79124;SDS011;68527;39.470;-0.376;2023-07-09T11:22:05;4.70;;;3.30;;
79124;SDS011;68527;39.470;-0.376;2023-07-09T11:27:30;6.30;;;3.20;;
79124;SDS011;68527;39.470;-0.376;2023-07-09T11:30:01;5.20;;;3.10;;
79124;SDS011;68527;39.470;-0.376;2023-07-09T11:32:30;4.20;;;2.80;;
79124;SDS011;68527;39.470;-0.376;2023-07-09T11:35:05;4.90;;;3.30;;
79124;SDS011;68527;39.470;-0.376;2023-07-09T11:37:43;4.90;;;3.00;;
79124;SDS011;68527;39.470;-0.376;2023-07-09T11:40:10;4.40;;;3.20;;
79124;SDS011;68527;39.470;-0.376;2023-07-09T11:42:46;5.20;;;3.10;;
79124;SDS011;68527;39.470;-0.376;2023-07-09T11:45:14;4.50;;;3.10;;
79124;SDS011;68527;39.470;-0.376;2023-07-09T11:47:47;6.20;;;3.50;;
79124;SDS011;68527;39.470;-0.376;2023-07-09T11:50:21;3.80;;;2.80;;
79124;SDS011;68527;39.470;-0.376;2023-07-09T11:52:56;4.30;;;3.00;;
79124;SDS011;68527;39.470;-0.376;2023-07-09T11:55:33;5.50;;;3.30;;
79124;SDS011;68527;39.470;-0.376;2023-07-09T11:58:07;5.10;;;3.30;;
79124;SDS011;68527;39.470;-0.376;2023-07-09T12:00:44;5.50;;;3.40;;
79124;SDS011;68527;39.470;-0.376;2023-07-09T12:03:19;5.20;;;3.30;;
79124;SDS011;68527;39.470;-0.376;2023-07-09T12:06:00;6.00;;;3.70;;
79124;SDS011;68527;39.470;-0.376;2023-07-09T12:08:38;4.30;;;3.10;;
79124;SDS011;68527;39.470;-0.376;2023-07-09T12:11:06;5.00;;;3.40;;
79124;SDS011;68527;39.470;-0.376;2023-07-09T12:13:47;4.50;;;3.00;;
79124;SDS011;68527;39.470;-0.376;2023-07-09T12:16:27;5.50;;;3.50;;
79124;SDS011;68527;39.470;-0.376;2023-07-09T12:18:57;4.30;;;3.50;;
79124;SDS011;68527;39.470;-0.376;2023-07-09T12:21:23;3.80;;;3.30;;
79124;SDS011;68527;39.470;-0.376;2023-07-09T12:23:49;4.30;;;3.20;;
79124;SDS011;68527;39.470;-0.376;2023-07-09T12:26:16;4.20;;;3.10;;
79124;SDS011;68527;39.470;-0.376;2023-07-09T12:28:43;5.00;;;3.20;;
79124;SDS011;68527;39.470;-0.376;2023-07-09T12:31:18;4.40;;;3.30;;
79124;SDS011;68527;39.470;-0.376;2023-07-09T12:33:50;4.10;;;3.40;;
79124;SDS011;68527;39.470;-0.376;2023-07-09T12:36:18;5.00;;;3.90;;
79124;SDS011;68527;39.470;-0.376;2023-07-09T12:38:49;4.00;;;3.40;;
79124;SDS011;68527;39.470;-0.376;2023-07-09T12:41:19;6.00;;;3.20;;
79124;SDS011;68527;39.470;-0.376;2023-07-09T12:43:45;4.60;;;3.50;;
79124;SDS011;68527;39.470;-0.376;2023-07-09T12:46:11;4.30;;;3.50;;
79124;SDS011;68527;39.470;-0.376;2023-07-09T12:48:37;5.90;;;4.10;;
79124;SDS011;68527;39.470;-0.376;2023-07-09T12:51:06;5.40;;;3.70;;
79124;SDS011;68527;39.470;-0.376;2023-07-09T12:53:32;5.20;;;3.20;;
79124;SDS011;68527;39.470;-0.376;2023-07-09T12:55:59;4.50;;;3.10;;
79124;SDS011;68527;39.470;-0.376;2023-07-09T12:58:29;5.30;;;4.10;;
79124;SDS011;68527;39.470;-0.376;2023-07-09T13:01:00;4.30;;;3.70;;
79124;SDS011;68527;39.470;-0.376;2023-07-09T13:03:32;4.60;;;3.60;;
79124;SDS011;68527;39.470;-0.376;2023-07-09T13:06:03;4.80;;;3.50;;
79124;SDS011;68527;39.470;-0.376;2023-07-09T13:08:39;4.70;;;3.80;;
79124;SDS011;68527;39.470;-0.376;2023-07-09T13:11:16;4.20;;;3.40;;
79124;SDS011;68527;39.470;-0.376;2023-07-09T13:13:53;5.40;;;3.60;;
79124;SDS011;68527;39.470;-0.376;2023-07-09T13:16:22;4.70;;;3.60;;
79124;SDS011;68527;39.470;-0.376;2023-07-09T13:18:48;5.10;;;3.90;;
79124;SDS011;68527;39.470;-0.376;2023-07-09T13:21:16;5.70;;;3.30;;
79124;SDS011;68527;39.470;-0.376;2023-07-09T13:23:43;5.10;;;4.00;;
79124;SDS011;68527;39.470;-0.376;2023-07-09T13:26:08;4.00;;;3.40;;
79124;SDS011;68527;39.470;-0.376;2023-07-09T13:28:34;4.20;;;3.40;;
79124;SDS011;68527;39.470;-0.376;2023-07-09T13:31:01;5.20;;;3.40;;
79124;SDS011;68527;39.470;-0.376;2023-07-09T13:33:35;6.90;;;3.80;;
79124;SDS011;68527;39.470;-0.376;2023-07-09T13:36:02;4.90;;;3.50;;
79124;SDS011;68527;39.470;-0.376;2023-07-09T13:38:28;3.90;;;3.30;;
79124;SDS011;68527;39.470;-0.376;2023-07-09T13:40:57;5.30;;;3.60;;
79124;SDS011;68527;39.470;-0.376;2023-07-09T13:43:33;5.10;;;3.90;;
79124;SDS011;68527;39.470;-0.376;2023-07-09T13:46:01;5.70;;;3.50;;
79124;SDS011;68527;39.470;-0.376;2023-07-09T13:48:31;4.00;;;3.30;;
79124;SDS011;68527;39.470;-0.376;2023-07-09T13:50:58;4.70;;;3.50;;
79124;SDS011;68527;39.470;-0.376;2023-07-09T13:53:29;4.20;;;3.40;;
79124;SDS011;68527;39.470;-0.376;2023-07-09T13:55:56;6.30;;;4.00;;
79124;SDS011;68527;39.470;-0.376;2023-07-09T13:58:22;4.90;;;3.90;;
79124;SDS011;68527;39.470;-0.376;2023-07-09T14:00:50;5.40;;;3.70;;
79124;SDS011;68527;39.470;-0.376;2023-07-09T14:03:21;5.10;;;3.60;;
79124;SDS011;68527;39.470;-0.376;2023-07-09T14:05:48;4.90;;;3.60;;
79124;SDS011;68527;39.470;-0.376;2023-07-09T14:08:14;5.20;;;3.50;;
79124;SDS011;68527;39.470;-0.376;2023-07-09T14:10:41;4.10;;;3.40;;
79124;SDS011;68527;39.470;-0.376;2023-07-09T14:13:08;5.00;;;4.00;;
79124;SDS011;68527;39.470;-0.376;2023-07-09T14:15:38;4.90;;;3.40;;
79124;SDS011;68527;39.470;-0.376;2023-07-09T14:18:04;5.20;;;3.80;;
79124;SDS011;68527;39.470;-0.376;2023-07-09T14:20:34;3.70;;;3.30;;
79124;SDS011;68527;39.470;-0.376;2023-07-09T14:23:00;4.60;;;3.50;;
79124;SDS011;68527;39.470;-0.376;2023-07-09T14:25:26;5.10;;;3.40;;
79124;SDS011;68527;39.470;-0.376;2023-07-09T14:27:53;3.50;;;2.70;;
79124;SDS011;68527;39.470;-0.376;2023-07-09T14:30:20;4.50;;;3.70;;
79124;SDS011;68527;39.470;-0.376;2023-07-09T14:32:47;5.70;;;3.30;;
79124;SDS011;68527;39.470;-0.376;2023-07-09T14:35:24;4.40;;;3.30;;
79124;SDS011;68527;39.470;-0.376;2023-07-09T14:37:52;5.20;;;3.30;;
79124;SDS011;68527;39.470;-0.376;2023-07-09T14:40:20;4.80;;;3.40;;
79124;SDS011;68527;39.470;-0.376;2023-07-09T14:42:48;4.70;;;3.30;;
79124;SDS011;68527;39.470;-0.376;2023-07-09T14:45:18;3.70;;;3.00;;
79124;SDS011;68527;39.470;-0.376;2023-07-09T14:47:51;3.70;;;3.10;;
79124;SDS011;68527;39.470;-0.376;2023-07-09T14:50:18;3.40;;;3.10;;
79124;SDS011;68527;39.470;-0.376;2023-07-09T14:52:47;4.60;;;3.20;;
79124;SDS011;68527;39.470;-0.376;2023-07-09T14:55:17;4.40;;;3.30;;
79124;SDS011;68527;39.470;-0.376;2023-07-09T15:00:18;4.30;;;2.90;;
79124;SDS011;68527;39.470;-0.376;2023-07-09T15:02:46;5.40;;;3.50;;
79124;SDS011;68527;39.470;-0.376;2023-07-09T15:05:21;4.40;;;3.30;;
79124;SDS011;68527;39.470;-0.376;2023-07-09T15:07:49;3.70;;;3.20;;